createdAt,value
2023-02-22T00:00:58.544Z,22.10
2023-02-22T00:01:58.546Z,22.10
2023-02-22T00:02:58.503Z,22.10
2023-02-22T00:03:58.463Z,22.10
2023-02-22T00:04:58.426Z,22.10
2023-02-22T00:05:58.399Z,22.09
2023-02-22T00:06:58.357Z,22.10
2023-02-22T00:07:58.323Z,22.09
2023-02-22T00:08:58.300Z,22.09
2023-02-22T00:09:58.268Z,22.09
2023-02-22T00:10:58.235Z,22.09
2023-02-22T00:11:58.200Z,22.09
2023-02-22T00:12:58.169Z,22.09
2023-02-22T00:13:58.152Z,22.09
2023-02-22T00:14:58.106Z,22.09
2023-02-22T00:15:58.138Z,22.08
2023-02-22T00:16:58.075Z,22.09
2023-02-22T00:17:58.054Z,22.09
2023-02-22T00:18:58.017Z,22.09
2023-02-22T00:19:57.988Z,22.08
2023-02-22T00:20:57.989Z,22.08
2023-02-22T00:21:57.921Z,22.08
2023-02-22T00:22:57.902Z,22.08
2023-02-22T00:23:57.872Z,22.07
2023-02-22T00:24:57.821Z,22.07
2023-02-22T00:25:57.805Z,22.08
2023-02-22T00:26:57.789Z,22.07
2023-02-22T00:27:57.743Z,22.07
2023-02-22T00:28:57.716Z,22.07
2023-02-22T00:29:57.684Z,22.07
2023-02-22T00:30:57.643Z,22.07
2023-02-22T00:31:57.782Z,22.07
2023-02-22T00:32:57.574Z,22.07
2023-02-22T00:33:57.541Z,22.07
2023-02-22T00:34:57.510Z,22.06
2023-02-22T00:35:57.478Z,22.07
2023-02-22T00:36:57.447Z,22.06
2023-02-22T00:37:57.412Z,22.06
2023-02-22T00:38:57.378Z,22.06
2023-02-22T00:39:57.346Z,22.06
2023-02-22T00:40:57.308Z,22.06
2023-02-22T00:41:57.295Z,22.06
2023-02-22T00:42:57.245Z,22.06
2023-02-22T00:43:57.212Z,22.05
2023-02-22T00:44:57.177Z,22.05
2023-02-22T00:45:57.184Z,22.05
2023-02-22T00:46:57.103Z,22.05
2023-02-22T00:47:57.077Z,22.05
2023-02-22T00:48:57.033Z,22.05
2023-02-22T00:49:56.993Z,22.05
2023-02-22T00:50:56.956Z,22.05
2023-02-22T00:51:56.935Z,22.05
2023-02-22T00:52:56.900Z,22.05
2023-02-22T00:53:56.874Z,22.04
2023-02-22T00:54:56.825Z,22.05
2023-02-22T00:55:56.796Z,22.04
2023-02-22T00:56:56.760Z,22.04
2023-02-22T00:57:56.723Z,22.04
2023-02-22T00:58:56.721Z,22.04
2023-02-22T00:59:56.660Z,22.04
2023-02-22T01:00:56.695Z,22.04
2023-02-22T01:01:56.636Z,22.03
2023-02-22T01:02:56.569Z,22.03
2023-02-22T01:03:56.547Z,22.04
2023-02-22T01:04:56.515Z,22.04
2023-02-22T01:05:56.484Z,22.03
2023-02-22T01:06:56.453Z,22.03
2023-02-22T01:07:56.440Z,22.04
2023-02-22T01:08:56.402Z,22.04
2023-02-22T01:09:56.365Z,22.03
2023-02-22T01:10:56.331Z,22.03
2023-02-22T01:11:56.303Z,22.03
2023-02-22T01:12:56.266Z,22.03
2023-02-22T01:13:56.235Z,22.03
2023-02-22T01:14:56.200Z,22.03
2023-02-22T01:15:56.175Z,22.02
2023-02-22T01:16:56.169Z,22.03
2023-02-22T01:17:56.107Z,22.02
2023-02-22T01:18:56.087Z,22.02
2023-02-22T01:19:56.030Z,22.02
2023-02-22T01:20:55.994Z,22.02
2023-02-22T01:21:55.980Z,22.02
2023-02-22T01:22:55.933Z,22.02
2023-02-22T01:23:55.909Z,22.02
2023-02-22T01:24:55.869Z,22.02
2023-02-22T01:25:55.982Z,22.02
2023-02-22T01:26:55.796Z,22.01
2023-02-22T01:27:55.764Z,22.01
2023-02-22T01:28:55.718Z,22.02
2023-02-22T01:29:55.701Z,22.01
2023-02-22T01:30:55.854Z,22.01
2023-02-22T01:31:55.652Z,22.01
2023-02-22T01:32:55.585Z,22.01
2023-02-22T01:33:55.551Z,22.01
2023-02-22T01:34:55.515Z,22.01
2023-02-22T01:35:55.479Z,22.01
2023-02-22T01:36:55.438Z,22.01
2023-02-22T01:37:55.429Z,22.01
2023-02-22T01:38:55.373Z,22.00
2023-02-22T01:39:55.342Z,22.01
2023-02-22T01:40:55.301Z,22.01
2023-02-22T01:41:55.262Z,22.01
2023-02-22T01:42:55.228Z,22.01
2023-02-22T01:43:55.191Z,22.00
2023-02-22T01:44:55.150Z,22.00
2023-02-22T01:45:55.121Z,22.01
2023-02-22T01:46:55.070Z,22.00
2023-02-22T01:47:55.041Z,22.00
2023-02-22T01:48:55.008Z,22.01
2023-02-22T01:49:54.963Z,22.00
2023-02-22T01:50:54.919Z,22.00
2023-02-22T01:51:54.878Z,22.01
2023-02-22T01:52:54.845Z,22.00
2023-02-22T01:53:54.819Z,22.00
2023-02-22T01:54:54.785Z,22.00
2023-02-22T01:55:54.756Z,21.99
2023-02-22T01:56:54.714Z,21.99
2023-02-22T01:57:54.698Z,22.00
2023-02-22T01:58:54.658Z,22.00
2023-02-22T01:59:54.638Z,21.99
2023-02-22T02:00:54.591Z,21.99
2023-02-22T02:01:54.561Z,22.00
2023-02-22T02:02:54.524Z,21.99
2023-02-22T02:03:54.500Z,22.00
2023-02-22T02:04:54.474Z,21.99
2023-02-22T02:05:54.427Z,21.99
2023-02-22T02:06:54.388Z,21.99
2023-02-22T02:07:54.363Z,22.00
2023-02-22T02:08:54.333Z,21.99
2023-02-22T02:09:54.377Z,21.99
2023-02-22T02:10:54.267Z,22.00
2023-02-22T02:11:54.239Z,21.99
2023-02-22T02:12:54.224Z,22.00
2023-02-22T02:13:54.183Z,21.99
2023-02-22T02:14:54.177Z,21.98
2023-02-22T02:15:54.122Z,22.00
2023-02-22T02:22:53.950Z,21.99
2023-02-22T07:07:45.501Z,22.67
2023-02-22T07:09:45.643Z,22.69
2023-02-22T07:10:45.387Z,22.70
2023-02-22T07:11:45.354Z,22.71
2023-02-22T07:12:45.319Z,22.73
2023-02-22T07:13:45.444Z,22.75
2023-02-22T07:14:45.234Z,22.75
2023-02-22T07:15:45.225Z,22.77
2023-02-22T07:16:45.159Z,22.78
2023-02-22T07:17:45.123Z,22.80
2023-02-22T07:18:45.093Z,22.80
2023-02-22T07:19:45.057Z,22.81
2023-02-22T07:20:45.003Z,22.82
2023-02-22T07:21:44.953Z,22.84
2023-02-22T07:22:44.918Z,22.86
2023-02-22T07:23:44.884Z,22.86
2023-02-22T07:24:44.916Z,22.87
2023-02-22T07:25:44.772Z,22.88
2023-02-22T08:04:42.966Z,23.60
2023-02-22T08:23:42.056Z,23.85
2023-02-22T08:26:41.915Z,23.88
2023-02-22T08:37:41.431Z,23.94
2023-02-22T08:38:41.376Z,23.97
2023-02-22T08:39:41.340Z,23.99
2023-02-22T08:40:41.291Z,23.99
2023-02-22T08:41:41.244Z,24.01
2023-02-22T08:42:41.190Z,24.03
2023-02-22T08:43:41.210Z,24.04
2023-02-22T08:44:41.085Z,24.05
2023-02-22T08:45:41.069Z,24.07
2023-02-22T08:46:40.956Z,24.08
2023-02-22T08:47:40.901Z,24.09
2023-02-22T08:48:40.861Z,24.10
2023-02-22T08:49:40.795Z,24.12
2023-02-22T08:50:40.746Z,24.11
2023-02-22T08:51:40.690Z,24.13
2023-02-22T08:52:40.976Z,24.15
2023-02-22T08:53:40.603Z,24.15
2023-02-22T08:54:40.544Z,24.16
2023-02-22T08:55:40.493Z,24.17
2023-02-22T08:56:40.452Z,24.15
2023-02-22T08:57:40.412Z,24.13
2023-02-22T08:58:40.380Z,24.11
2023-02-22T08:59:40.298Z,24.11
2023-02-22T09:00:40.276Z,24.10
2023-02-22T09:01:40.289Z,24.08
2023-02-22T09:02:40.136Z,24.07
2023-02-22T09:03:40.158Z,24.07
2023-02-22T09:04:40.038Z,24.06
2023-02-22T09:05:40.051Z,24.05
2023-02-22T09:14:39.630Z,24.03
2023-02-22T09:15:39.499Z,24.01
2023-02-22T09:16:39.556Z,24.00
2023-02-22T09:17:39.405Z,23.99
2023-02-22T09:18:44.287Z,23.98
2023-02-22T09:19:40.334Z,23.97
2023-02-22T09:20:39.826Z,23.96
2023-02-22T09:21:39.213Z,23.96
2023-02-22T09:22:39.154Z,23.96
2023-02-22T09:23:39.118Z,23.95
2023-02-22T09:24:39.127Z,23.97
2023-02-22T09:25:39.012Z,23.96
2023-02-22T09:26:38.974Z,23.96
2023-02-22T09:27:38.908Z,23.97
2023-02-22T09:28:38.855Z,23.96
2023-02-22T09:30:38.796Z,23.94
2023-02-22T09:31:38.827Z,23.94
2023-02-22T09:32:38.853Z,23.95
2023-02-22T09:33:38.622Z,23.97
2023-02-22T09:34:38.568Z,23.97
2023-02-22T09:35:38.519Z,23.97
2023-02-22T09:36:38.486Z,23.97
2023-02-22T09:37:38.444Z,23.97
2023-02-22T09:38:38.378Z,23.97
2023-02-22T09:39:38.421Z,23.97
2023-02-22T09:40:38.280Z,23.97
2023-02-22T09:41:38.246Z,23.96
2023-02-22T09:42:38.178Z,23.95
2023-02-22T09:43:38.153Z,23.95
2023-02-22T09:44:38.081Z,23.95
2023-02-22T09:45:38.044Z,23.94
2023-02-22T09:46:37.998Z,23.92
2023-02-22T09:47:37.981Z,23.94
2023-02-22T09:48:37.884Z,23.92
2023-02-22T09:49:37.848Z,23.93
2023-02-22T09:50:37.792Z,23.94
2023-02-22T09:52:37.783Z,23.92
2023-02-22T09:53:37.668Z,23.92
2023-02-22T09:54:37.629Z,23.90
2023-02-22T09:55:37.563Z,23.91
2023-02-22T09:56:37.523Z,23.89
2023-02-22T09:57:37.485Z,23.88
2023-02-22T09:58:37.437Z,23.87
2023-02-22T09:59:37.385Z,23.86
2023-02-22T10:00:37.329Z,23.86
2023-02-22T10:01:37.324Z,23.85
2023-02-22T10:02:37.231Z,23.86
2023-02-22T10:03:37.237Z,23.85
2023-02-22T10:04:37.194Z,23.84
2023-02-22T10:05:37.098Z,23.84
2023-02-22T10:06:37.063Z,23.83
2023-02-22T10:07:37.040Z,23.84
2023-02-22T10:08:36.976Z,23.83
2023-02-22T10:09:36.927Z,23.84
2023-02-22T10:10:36.896Z,23.84
2023-02-22T10:11:36.942Z,23.82
2023-02-22T10:12:36.798Z,23.82
2023-02-22T10:13:36.756Z,23.83
2023-02-22T10:14:36.710Z,23.82
2023-02-22T10:15:36.660Z,23.81
2023-02-22T10:16:36.691Z,23.80
2023-02-22T10:17:36.608Z,23.80
2023-02-22T10:18:36.550Z,23.80
2023-02-22T10:19:36.507Z,23.80
2023-02-22T10:20:36.462Z,23.80
2023-02-22T10:21:36.522Z,23.79
2023-02-22T10:22:36.376Z,23.79
2023-02-22T10:23:36.337Z,23.78
2023-02-22T10:24:36.308Z,23.76
2023-02-22T10:25:36.278Z,23.75
2023-02-22T10:26:36.244Z,23.74
2023-02-22T10:27:36.186Z,23.73
2023-02-22T10:28:36.146Z,23.73
2023-02-22T10:29:36.117Z,23.72
2023-02-22T10:30:36.117Z,23.71
2023-02-22T10:31:36.114Z,23.71
2023-02-22T10:32:36.032Z,23.71
2023-02-22T10:33:35.974Z,23.70
2023-02-22T10:34:35.921Z,23.71
2023-02-22T10:35:35.941Z,23.69
2023-02-22T10:36:35.888Z,23.68
2023-02-22T10:37:35.894Z,23.68
2023-02-22T10:38:35.840Z,23.69
2023-02-22T10:39:35.817Z,23.70
2023-02-22T10:40:35.684Z,23.69
2023-02-22T10:41:35.666Z,23.70
2023-02-22T10:42:35.608Z,23.68
2023-02-22T10:43:35.560Z,23.66
2023-02-22T10:44:35.500Z,23.70
2023-02-22T10:45:35.497Z,23.71
2023-02-22T10:46:35.404Z,23.76
2023-02-22T10:47:35.362Z,23.80
2023-02-22T10:48:35.415Z,23.85
2023-02-22T10:49:35.253Z,23.89
2023-02-22T10:50:35.348Z,23.92
2023-02-22T10:51:35.168Z,23.97
2023-02-22T10:52:35.122Z,23.98
2023-02-22T10:53:36.530Z,24.00
2023-02-22T10:54:34.999Z,24.04
2023-02-22T10:55:34.993Z,24.07
2023-02-22T10:56:34.901Z,24.11
2023-02-22T10:57:34.870Z,24.13
2023-02-22T10:58:34.801Z,24.16
2023-02-22T10:59:34.795Z,24.17
2023-02-22T11:24:47.466Z,24.45
2023-02-22T11:25:34.500Z,24.47
2023-02-22T11:26:33.473Z,24.49
2023-02-22T11:27:33.411Z,24.47
2023-02-22T11:28:33.392Z,24.48
2023-02-22T11:34:33.056Z,24.50
2023-02-22T12:43:29.856Z,23.70
2023-02-22T12:44:29.804Z,23.69
2023-02-22T12:45:29.741Z,23.68
2023-02-22T12:46:29.780Z,23.68
2023-02-22T12:47:29.666Z,23.67
2023-02-22T12:48:29.631Z,23.67
2023-02-22T12:49:29.596Z,23.68
2023-02-22T12:50:29.569Z,23.68
2023-02-22T12:51:29.509Z,23.68
2023-02-22T12:52:29.469Z,23.68
2023-02-22T12:53:29.426Z,23.67
2023-02-22T12:54:29.436Z,23.67
2023-02-22T12:55:29.356Z,23.67
2023-02-22T12:56:29.323Z,23.67
2023-02-22T12:57:29.266Z,23.66
2023-02-22T12:58:29.225Z,23.65
2023-02-22T12:59:29.175Z,23.64
2023-02-22T13:00:29.140Z,23.63
2023-02-22T13:01:29.116Z,23.63
2023-02-22T13:02:29.056Z,23.63
2023-02-22T13:03:29.004Z,23.63
2023-02-22T13:04:28.976Z,23.62
2023-02-22T13:05:29.005Z,23.62
2023-02-22T13:06:28.906Z,23.62
2023-02-22T13:07:28.862Z,23.62
2023-02-22T13:08:28.828Z,23.62
2023-02-22T13:09:28.810Z,23.62
2023-02-22T13:10:28.743Z,23.62
2023-02-22T13:11:28.687Z,23.62
2023-02-22T13:12:28.646Z,23.62
2023-02-22T13:13:28.595Z,23.62
2023-02-22T13:14:28.547Z,23.62
2023-02-22T13:15:28.510Z,23.62
2023-02-22T13:16:28.481Z,23.62
2023-02-22T13:17:28.420Z,23.61
2023-02-22T13:18:28.401Z,23.62
2023-02-22T13:19:28.325Z,23.62
2023-02-22T13:20:28.341Z,23.62
2023-02-22T13:21:28.264Z,23.63
2023-02-22T13:22:28.202Z,23.64
2023-02-22T13:23:28.146Z,23.63
2023-02-22T13:24:28.153Z,23.64
2023-02-22T13:25:28.050Z,23.64
2023-02-22T13:26:28.004Z,23.65
2023-02-22T13:27:27.959Z,23.66
2023-02-22T13:28:27.899Z,23.67
2023-02-22T13:29:27.855Z,23.68
2023-02-22T13:30:27.905Z,23.68
2023-02-22T13:31:27.870Z,23.67
2023-02-22T13:32:27.992Z,23.69
2023-02-22T13:33:27.906Z,23.70
2023-02-22T13:34:28.720Z,23.71
2023-02-22T13:35:27.555Z,23.72
2023-02-22T13:36:27.508Z,23.74
2023-02-22T13:37:27.508Z,23.77
2023-02-22T13:38:27.413Z,23.79
2023-02-22T13:39:27.352Z,23.81
2023-02-22T13:40:27.324Z,23.82
2023-02-22T13:41:27.259Z,23.85
2023-02-22T13:42:27.227Z,23.88
2023-02-22T13:43:27.289Z,23.89
2023-02-22T13:44:27.197Z,23.90
2023-02-22T13:45:27.118Z,23.91
2023-02-22T13:46:27.075Z,23.93
2023-02-22T13:47:27.018Z,23.95
2023-02-22T13:48:26.958Z,23.97
2023-02-22T13:49:26.945Z,23.96
2023-02-22T13:50:26.875Z,23.95
2023-02-22T13:51:26.868Z,23.97
2023-02-22T13:52:26.800Z,24.03
2023-02-22T13:53:26.744Z,24.08
2023-02-22T13:54:27.903Z,24.12
2023-02-22T13:55:26.663Z,24.17
2023-02-22T13:56:26.632Z,24.18
2023-02-22T13:57:26.665Z,24.20
2023-02-22T13:58:26.555Z,24.21
2023-02-22T13:59:26.526Z,24.21
2023-02-22T14:00:26.465Z,24.23
2023-02-22T14:01:26.493Z,24.26
2023-02-22T14:02:26.346Z,24.29
2023-02-22T14:03:26.295Z,24.32
2023-02-22T14:04:26.246Z,24.34
2023-02-22T14:05:26.408Z,24.38
2023-02-22T14:06:26.152Z,24.42
2023-02-22T14:07:26.092Z,24.44
2023-02-22T14:08:26.044Z,24.47
2023-02-22T14:09:25.996Z,24.49
2023-02-22T14:14:25.757Z,24.52
2023-02-22T14:15:30.260Z,24.52
2023-02-22T14:18:25.517Z,24.52
2023-02-22T14:19:25.468Z,24.52
2023-02-22T14:24:25.176Z,24.50
2023-02-22T14:25:28.496Z,24.51
2023-02-22T14:26:25.113Z,24.51
2023-02-22T14:27:25.026Z,24.51
2023-02-22T14:28:24.983Z,24.51
2023-02-22T14:29:24.899Z,24.51
2023-02-22T14:30:24.869Z,24.53
2023-02-22T14:31:35.546Z,24.53
2023-02-22T14:32:25.872Z,24.53
2023-02-22T14:33:24.669Z,24.54
2023-02-22T14:34:24.656Z,24.55
2023-02-22T14:35:28.726Z,24.57
2023-02-22T14:36:25.533Z,24.58
2023-02-22T14:37:24.502Z,24.60
2023-02-22T14:38:24.439Z,24.61
2023-02-22T14:39:24.405Z,24.64
2023-02-22T14:40:24.338Z,24.66
2023-02-22T14:41:24.343Z,24.67
2023-02-22T14:42:24.262Z,24.68
2023-02-22T14:43:24.195Z,24.70
2023-02-22T14:44:24.147Z,24.71
2023-02-22T14:45:24.105Z,24.70
2023-02-22T14:46:24.151Z,24.69
2023-02-22T14:47:24.013Z,24.65
2023-02-22T14:48:23.945Z,24.63
2023-02-22T14:49:23.897Z,24.60
2023-02-22T14:50:23.845Z,24.58
2023-02-22T14:51:26.771Z,24.55
2023-02-22T14:52:23.721Z,24.54
2023-02-22T14:53:23.680Z,24.52
2023-02-22T14:54:23.616Z,24.50
2023-02-22T14:55:23.576Z,24.46
2023-02-22T14:56:23.532Z,24.45
2023-02-22T14:57:23.459Z,24.43
2023-02-22T14:58:23.422Z,24.42
2023-02-22T15:01:24.309Z,24.39
2023-02-22T15:02:23.255Z,24.38
2023-02-22T15:03:23.191Z,24.37
2023-02-22T15:04:23.140Z,24.36
2023-02-22T15:05:23.085Z,24.36
2023-02-22T15:06:23.056Z,24.35
2023-02-22T15:07:22.980Z,24.34
2023-02-22T15:08:22.950Z,24.33
2023-02-22T15:09:22.883Z,24.32
2023-02-22T15:10:22.855Z,24.32
2023-02-22T15:11:22.798Z,24.31
2023-02-22T15:12:22.762Z,24.30
2023-02-22T15:13:22.715Z,24.29
2023-02-22T15:14:26.258Z,24.28
2023-02-22T15:16:22.678Z,24.26
2023-02-22T15:17:22.547Z,24.25
2023-02-22T15:19:22.427Z,24.23
2023-02-22T15:20:22.424Z,24.22
2023-02-22T15:21:22.354Z,24.21
2023-02-22T15:22:22.335Z,24.19
2023-02-22T15:23:22.260Z,24.18
2023-02-22T15:24:22.226Z,24.17
2023-02-22T15:25:22.168Z,24.15
2023-02-22T15:26:22.125Z,24.14
2023-02-22T15:27:22.090Z,24.12
2023-02-22T15:28:22.059Z,24.12
2023-02-22T15:29:21.995Z,24.10
2023-02-22T15:30:22.117Z,24.09
2023-02-22T15:31:21.921Z,24.08
2023-02-22T15:32:21.964Z,24.08
2023-02-22T15:33:21.820Z,24.06
2023-02-22T15:34:21.802Z,24.05
2023-02-22T15:35:21.697Z,24.03
2023-02-22T15:36:21.664Z,24.03
2023-02-22T15:37:21.626Z,24.02
2023-02-22T15:38:21.636Z,24.00
2023-02-22T15:39:21.536Z,23.99
2023-02-22T15:40:21.480Z,23.98
2023-02-22T15:41:21.444Z,23.96
2023-02-22T15:42:21.395Z,23.95
2023-02-22T15:43:21.374Z,23.94
2023-02-22T15:44:23.978Z,23.94
2023-02-22T15:45:21.246Z,23.92
2023-02-22T15:46:21.214Z,23.91
2023-02-22T15:47:21.151Z,23.90
2023-02-22T15:48:21.115Z,23.89
2023-02-22T15:49:21.081Z,23.89
2023-02-22T15:50:21.029Z,23.88
2023-02-22T15:51:20.982Z,23.87
2023-02-22T15:52:20.942Z,23.86
2023-02-22T15:53:20.917Z,23.85
2023-02-22T15:54:27.070Z,23.84
2023-02-22T15:55:23.635Z,23.82
2023-02-22T15:56:20.783Z,23.80
2023-02-22T15:57:20.717Z,23.79
2023-02-22T15:58:20.692Z,23.79
2023-02-22T15:59:20.669Z,23.78
2023-02-22T16:00:20.588Z,23.78
2023-02-22T16:01:20.881Z,23.77
2023-02-22T16:02:20.553Z,23.75
2023-02-22T16:03:20.487Z,23.74
2023-02-22T16:04:20.461Z,23.73
2023-02-22T16:05:20.411Z,23.72
2023-02-22T16:06:20.358Z,23.71
2023-02-22T16:07:20.320Z,23.70
2023-02-22T16:08:20.285Z,23.69
2023-02-22T16:09:20.255Z,23.69
2023-02-22T16:10:20.192Z,23.68
2023-02-22T16:11:20.164Z,23.67
2023-02-22T16:12:20.121Z,23.67
2023-02-22T16:13:31.063Z,23.65
2023-02-22T16:14:21.047Z,23.64
2023-02-22T16:15:19.999Z,23.64
2023-02-22T16:16:19.976Z,23.63
2023-02-22T16:17:20.005Z,23.62
2023-02-22T16:18:19.879Z,23.61
2023-02-22T16:19:19.829Z,23.60
2023-02-22T16:20:19.795Z,23.61
2023-02-22T16:21:20.022Z,23.60
2023-02-22T16:22:19.748Z,23.59
2023-02-22T16:23:19.666Z,23.59
2023-02-22T16:24:19.628Z,23.58
2023-02-22T16:25:19.644Z,23.57
2023-02-22T16:26:19.542Z,23.56
2023-02-22T16:27:19.499Z,23.55
2023-02-22T17:10:17.821Z,23.25
2023-02-22T17:11:17.778Z,23.25
2023-02-22T17:12:17.746Z,23.25
2023-02-22T17:13:24.181Z,23.23
2023-02-22T17:14:18.678Z,23.22
2023-02-22T17:15:17.637Z,23.22
2023-02-22T17:16:18.096Z,23.21
2023-02-22T17:17:17.555Z,23.21
2023-02-22T17:18:17.525Z,23.19
2023-02-22T17:19:17.497Z,23.19
2023-02-22T17:20:17.429Z,23.19
2023-02-22T17:21:17.393Z,23.18
2023-02-22T17:22:17.354Z,23.18
2023-02-22T17:23:17.322Z,23.18
2023-02-22T17:24:17.290Z,23.18
2023-02-22T17:25:17.230Z,23.17
2023-02-22T17:26:17.500Z,23.16
2023-02-22T17:27:17.145Z,23.15
2023-02-22T17:28:17.113Z,23.15
2023-02-22T17:29:17.057Z,23.15
2023-02-22T17:30:17.074Z,23.15
2023-02-22T17:31:17.004Z,23.14
2023-02-22T17:32:16.965Z,23.14
2023-02-22T17:33:16.895Z,23.14
2023-02-22T17:34:16.874Z,23.14
2023-02-22T17:35:16.812Z,23.13
2023-02-22T17:36:17.044Z,23.13
2023-02-22T17:37:16.731Z,23.12
2023-02-22T17:38:16.696Z,23.12
2023-02-22T17:39:16.643Z,23.11
2023-02-22T17:40:16.643Z,23.10
2023-02-22T17:41:16.567Z,23.09
2023-02-22T17:42:16.512Z,23.08
2023-02-22T17:43:16.476Z,23.08
2023-02-22T17:44:16.439Z,23.07
2023-02-22T17:45:16.412Z,23.07
2023-02-22T17:46:16.860Z,23.05
2023-02-22T17:47:16.369Z,23.06
2023-02-22T17:48:16.306Z,23.05
2023-02-22T17:49:16.280Z,23.05
2023-02-22T17:50:16.264Z,23.05
2023-02-22T17:51:16.187Z,23.04
2023-02-22T17:52:16.152Z,23.04
2023-02-22T17:53:16.090Z,23.04
2023-02-22T17:54:16.057Z,23.04
2023-02-22T17:55:16.032Z,23.04
2023-02-22T17:56:16.262Z,23.04
2023-02-22T17:57:15.968Z,23.03
2023-02-22T17:58:15.940Z,23.03
2023-02-22T17:59:15.899Z,23.03
2023-02-22T18:00:15.872Z,23.03
2023-02-22T18:01:16.915Z,23.02
2023-02-22T18:02:15.811Z,23.02
2023-02-22T18:03:15.759Z,23.01
2023-02-22T18:04:15.781Z,23.00
2023-02-22T18:05:15.757Z,23.01
2023-02-22T18:06:15.887Z,23.00
2023-02-22T18:07:15.655Z,23.00
2023-02-22T18:08:15.618Z,23.00
2023-02-22T18:09:15.613Z,23.00
2023-02-22T18:10:15.556Z,22.99
2023-02-22T18:11:15.623Z,22.99
2023-02-22T18:12:15.488Z,22.98
2023-02-22T18:13:15.466Z,22.98
2023-02-22T18:14:15.429Z,22.98
2023-02-22T18:15:15.396Z,22.97
2023-02-22T18:16:15.386Z,22.96
2023-02-22T18:17:15.326Z,22.96
2023-02-22T18:18:15.299Z,22.95
2023-02-22T18:19:15.277Z,22.95
2023-02-22T18:20:15.236Z,22.95
2023-02-22T18:21:15.215Z,22.95
2023-02-22T18:22:15.176Z,22.94
2023-02-22T18:23:15.141Z,22.93
2023-02-22T18:24:15.103Z,22.93
2023-02-22T18:25:15.068Z,22.94
2023-02-22T18:26:15.091Z,22.93
2023-02-22T18:27:14.999Z,22.93
2023-02-22T18:28:14.947Z,22.93
2023-02-22T18:29:14.928Z,22.92
2023-02-22T18:30:14.904Z,22.92
2023-02-22T18:31:15.206Z,22.91
2023-02-22T18:32:14.849Z,22.91
2023-02-22T18:33:14.800Z,22.91
2023-02-22T18:34:14.768Z,22.91
2023-02-22T18:35:14.746Z,22.90
2023-02-22T18:36:14.699Z,22.90
2023-02-22T18:37:14.649Z,22.90
2023-02-22T18:38:14.604Z,22.89
2023-02-22T18:39:14.566Z,22.89
2023-02-22T18:40:14.522Z,22.88
2023-02-22T18:41:14.476Z,22.87
2023-02-22T18:42:14.435Z,22.87
2023-02-22T18:43:14.402Z,22.87
2023-02-22T18:44:14.373Z,22.86
2023-02-22T18:45:14.340Z,22.85
2023-02-22T18:46:14.375Z,22.85
2023-02-22T18:47:14.265Z,22.85
2023-02-22T18:48:14.238Z,22.85
2023-02-22T18:49:14.199Z,22.85
2023-02-22T18:50:14.157Z,22.84
2023-02-22T18:51:14.133Z,22.84
2023-02-22T18:52:14.090Z,22.83
2023-02-22T18:53:14.080Z,22.83
2023-02-22T18:54:14.061Z,22.82
2023-02-22T18:55:14.012Z,22.83
2023-02-22T18:56:13.980Z,22.82
2023-02-22T18:57:13.939Z,22.83
2023-02-22T18:58:13.899Z,22.82
2023-02-22T18:59:13.861Z,22.82
2023-02-22T19:00:13.835Z,22.81
2023-02-22T19:01:13.795Z,22.81
2023-02-22T19:02:13.767Z,22.81
2023-02-22T19:03:13.740Z,22.80
2023-02-22T19:04:13.699Z,22.80
2023-02-22T19:05:13.672Z,22.80
2023-02-22T19:06:13.636Z,22.79
2023-02-22T19:07:13.602Z,22.79
2023-02-22T19:08:13.561Z,22.79
2023-02-22T19:09:13.525Z,22.78
2023-02-22T19:10:13.506Z,22.78
2023-02-22T19:11:13.469Z,22.78
2023-02-22T19:12:13.426Z,22.77
2023-02-22T19:13:13.393Z,22.78
2023-02-22T19:24:13.084Z,22.74
2023-02-22T19:26:12.900Z,22.71
2023-02-22T19:27:12.869Z,22.72
2023-02-22T19:28:12.825Z,22.70
2023-02-22T19:29:12.792Z,22.71
2023-02-22T19:31:12.785Z,22.70
2023-02-22T19:32:12.758Z,22.69
2023-02-22T19:33:12.601Z,22.70
2023-02-22T19:34:12.555Z,22.70
2023-02-22T19:35:12.521Z,22.70
2023-02-22T19:36:12.475Z,22.69
2023-02-22T19:37:12.444Z,22.70
2023-02-22T19:38:12.404Z,22.69
2023-02-22T19:39:12.364Z,22.68
2023-02-22T19:40:12.327Z,22.68
2023-02-22T19:41:12.302Z,22.67
2023-02-22T19:42:12.252Z,22.67
2023-02-22T19:43:12.216Z,22.67
2023-02-22T19:44:12.210Z,22.67
2023-02-22T19:45:12.145Z,22.66
2023-02-22T19:46:12.110Z,22.66
2023-02-22T19:47:12.079Z,22.65
2023-02-22T19:48:12.044Z,22.65
2023-02-22T19:49:12.003Z,22.65
2023-02-22T19:50:11.972Z,22.65
2023-02-22T19:51:11.942Z,22.64
2023-02-22T19:52:11.911Z,22.65
2023-02-22T19:53:11.864Z,22.64
2023-02-22T19:54:11.833Z,22.64
2023-02-22T19:55:11.793Z,22.64
2023-02-22T19:56:11.808Z,22.64
2023-02-22T19:57:11.727Z,22.63
2023-02-22T19:58:11.684Z,22.64
2023-02-22T19:59:11.672Z,22.63
2023-02-22T20:00:11.637Z,22.64
2023-02-22T20:01:11.605Z,22.63
2023-02-22T20:02:11.576Z,22.62
2023-02-22T20:03:11.556Z,22.62
2023-02-22T20:04:11.676Z,22.62
2023-02-22T20:05:11.474Z,22.62
2023-02-22T20:06:11.459Z,22.62
2023-02-22T20:07:11.432Z,22.61
2023-02-22T20:08:11.396Z,22.61
2023-02-22T20:09:11.365Z,22.61
2023-02-22T20:10:11.332Z,22.60
2023-02-22T20:11:11.308Z,22.61
2023-02-22T20:12:11.290Z,22.60
2023-02-22T20:13:11.235Z,22.60
2023-02-22T20:14:11.207Z,22.60
2023-02-22T20:15:11.148Z,22.60
2023-02-22T20:16:11.144Z,22.59
2023-02-22T20:17:11.086Z,22.59
2023-02-22T20:18:11.040Z,22.59
2023-02-22T20:19:11.003Z,22.57
2023-02-22T20:20:10.972Z,22.58
2023-02-22T20:21:10.935Z,22.58
2023-02-22T20:22:10.911Z,22.56
2023-02-22T20:23:10.876Z,22.57
2023-02-22T20:24:10.834Z,22.56
2023-02-22T20:25:10.791Z,22.56
2023-02-22T20:26:10.761Z,22.55
2023-02-22T20:27:10.727Z,22.56
2023-02-22T20:28:10.724Z,22.55
2023-02-22T20:29:10.665Z,22.55
2023-02-22T20:30:10.637Z,22.54
2023-02-22T20:31:10.598Z,22.54
2023-02-22T20:32:10.767Z,22.53
2023-02-22T20:33:10.675Z,22.53
2023-02-22T20:34:10.620Z,22.53
2023-02-22T20:35:10.489Z,22.53
2023-02-22T20:36:10.468Z,22.52
2023-02-22T20:37:10.425Z,22.53
2023-02-22T20:38:10.407Z,22.53
2023-02-22T20:39:10.368Z,22.52
2023-02-22T20:40:10.340Z,22.52
2023-02-22T20:41:10.309Z,22.51
2023-02-22T20:42:10.286Z,22.52
2023-02-22T20:43:10.260Z,22.51
2023-02-22T20:44:10.221Z,22.51
2023-02-22T20:45:11.912Z,22.51
2023-02-22T20:46:10.231Z,22.51
2023-02-22T20:47:10.130Z,22.50
2023-02-22T20:48:10.110Z,22.51
2023-02-22T20:49:10.154Z,22.51
2023-02-22T20:50:10.051Z,22.50
2023-02-22T20:51:10.051Z,22.50
2023-02-22T20:52:10.021Z,22.50
2023-02-22T20:53:10.709Z,22.49
2023-02-22T20:54:09.956Z,22.49
2023-02-22T20:55:09.892Z,22.48
2023-02-22T20:56:09.843Z,22.48
2023-02-22T20:57:09.833Z,22.48
2023-02-22T20:58:09.789Z,22.48
2023-02-22T20:59:09.747Z,22.47
2023-02-22T21:00:09.732Z,22.47
2023-02-22T21:01:09.728Z,22.48
2023-02-22T21:02:09.649Z,22.48
2023-02-22T21:03:09.636Z,22.47
2023-02-22T21:04:09.584Z,22.47
2023-02-22T21:05:09.553Z,22.46
2023-02-22T21:06:09.520Z,22.47
2023-02-22T21:07:09.508Z,22.47
2023-02-22T21:08:09.477Z,22.46
2023-02-22T21:09:09.432Z,22.45
2023-02-22T21:10:09.390Z,22.46
2023-02-22T21:11:09.354Z,22.46
2023-02-22T21:12:09.314Z,22.44
2023-02-22T21:13:11.546Z,22.45
2023-02-22T21:14:09.253Z,22.44
2023-02-22T21:15:09.199Z,22.45
2023-02-22T21:16:09.226Z,22.44
2023-02-22T21:17:09.247Z,22.45
2023-02-22T21:18:09.102Z,22.44
2023-02-22T21:19:09.062Z,22.44
2023-02-22T21:20:09.020Z,22.44
2023-02-22T21:21:08.988Z,22.44
2023-02-22T21:22:08.971Z,22.44
2023-02-22T21:23:08.939Z,22.44
2023-02-22T21:24:08.887Z,22.44
2023-02-22T21:25:08.852Z,22.45
2023-02-22T21:26:08.828Z,22.45
2023-02-22T21:27:08.823Z,22.46
2023-02-22T21:28:08.756Z,22.45
2023-02-22T21:29:08.728Z,22.45
2023-02-22T21:30:08.705Z,22.45
2023-02-22T21:31:08.761Z,22.45
2023-02-22T21:32:08.929Z,22.44
2023-02-22T21:33:08.602Z,22.43
2023-02-22T21:34:08.575Z,22.43
2023-02-22T21:35:08.544Z,22.43
2023-02-22T21:36:08.521Z,22.43
2023-02-22T21:37:08.483Z,22.43
2023-02-22T21:38:08.447Z,22.43
2023-02-22T21:39:08.440Z,22.42
2023-02-22T21:40:08.380Z,22.41
2023-02-22T21:41:08.343Z,22.41
2023-02-22T21:42:08.325Z,22.40
2023-02-22T21:43:08.270Z,22.40
2023-02-22T21:44:08.246Z,22.41
2023-02-22T21:45:08.199Z,22.42
2023-02-22T21:46:08.231Z,22.42